createdAt,value
2023-01-20T00:00:50.149Z,2.66
2023-01-20T00:03:19.783Z,2.67
2023-01-20T00:05:58.128Z,2.65
2023-01-20T00:08:27.491Z,2.61
2023-01-20T00:10:56.883Z,2.54
2023-01-20T00:13:26.342Z,2.50
2023-01-20T00:15:57.325Z,2.47
2023-01-20T00:18:27.196Z,2.46
2023-01-20T00:20:59.426Z,2.45
2023-01-20T00:23:28.783Z,2.44
2023-01-20T00:25:58.220Z,2.48
2023-01-20T00:28:27.678Z,2.49
2023-01-20T00:30:57.220Z,2.52
2023-01-20T00:33:26.636Z,2.50
2023-01-20T00:35:56.001Z,2.52
2023-01-20T00:38:28.113Z,2.53
2023-01-20T00:40:57.685Z,2.52
2023-01-20T00:43:27.053Z,2.53
2023-01-20T00:45:56.500Z,2.61
2023-01-20T00:48:25.933Z,2.65
2023-01-20T00:50:55.311Z,2.66
2023-01-20T00:53:24.658Z,2.62
2023-01-20T00:55:56.709Z,2.59
2023-01-20T00:58:26.185Z,2.59
2023-01-20T01:00:56.359Z,2.53
2023-01-20T01:03:28.112Z,2.54
2023-01-20T01:05:57.693Z,2.51
2023-01-20T01:08:27.124Z,2.54
2023-01-20T01:11:00.806Z,2.57
2023-01-20T01:13:30.213Z,2.54
2023-01-20T01:15:59.732Z,2.51
2023-01-20T01:18:29.169Z,2.51
2023-01-20T01:20:58.624Z,2.50
2023-01-20T01:23:28.132Z,2.46
2023-01-20T01:26:00.221Z,2.43
2023-01-20T01:28:29.611Z,2.35
2023-01-20T01:31:02.618Z,2.37
2023-01-20T01:33:32.011Z,2.35
2023-01-20T01:36:01.532Z,2.36
2023-01-20T01:38:30.864Z,2.37
2023-01-20T01:41:02.968Z,2.34
2023-01-20T01:43:32.700Z,2.36
2023-01-20T01:46:02.260Z,2.42
2023-01-20T01:48:32.347Z,2.39
2023-01-20T01:51:03.780Z,2.17
2023-01-20T01:53:33.171Z,2.20
2023-01-20T01:56:05.150Z,2.04
2023-01-20T01:58:35.219Z,1.79
2023-01-20T02:01:04.695Z,1.56
2023-01-20T02:03:34.786Z,1.77
2023-01-20T02:06:04.693Z,2.02
2023-01-20T02:08:33.929Z,1.81
2023-01-20T02:11:05.822Z,1.70
2023-01-20T02:13:35.148Z,1.49
2023-01-20T02:16:05.483Z,0.94
2023-01-20T02:18:38.720Z,1.09
2023-01-20T02:21:16.246Z,1.55
2023-01-20T02:23:55.148Z,1.91
2023-01-20T02:26:35.542Z,2.12
2023-01-20T02:29:10.461Z,2.20
2023-01-20T02:32:03.597Z,2.23
2023-01-20T02:34:36.037Z,2.20
2023-01-20T02:37:07.987Z,2.22
2023-01-20T02:39:38.895Z,2.26
2023-01-20T02:42:10.836Z,2.27
2023-01-20T02:44:41.614Z,2.21
2023-01-20T02:47:12.133Z,2.18
2023-01-20T02:49:45.497Z,2.17
2023-01-20T02:52:15.571Z,2.18
2023-01-20T02:54:45.189Z,2.25
2023-01-20T02:57:15.185Z,2.29
2023-01-20T02:59:44.901Z,2.34
2023-01-20T03:02:16.271Z,2.38
2023-01-20T03:04:48.924Z,2.41
2023-01-20T03:07:18.330Z,2.46
2023-01-20T03:09:47.962Z,2.46
2023-01-20T03:12:22.439Z,2.51
2023-01-20T03:14:52.093Z,2.53
2023-01-20T03:17:21.371Z,2.58
2023-01-20T03:19:53.372Z,2.60
2023-01-20T03:22:22.722Z,2.72
2023-01-20T03:24:52.049Z,2.73
2023-01-20T03:27:21.388Z,2.74
2023-01-20T03:29:50.834Z,2.72
2023-01-20T03:32:22.797Z,2.77
2023-01-20T03:34:54.784Z,2.69
2023-01-20T03:37:24.118Z,2.64
2023-01-20T03:39:53.590Z,2.64
2023-01-20T03:42:24.760Z,2.60
2023-01-20T03:45:00.551Z,2.61
2023-01-20T03:47:31.887Z,2.66
2023-01-20T03:50:06.357Z,2.63
2023-01-20T03:52:47.870Z,2.59
2023-01-20T03:55:18.573Z,2.60
2023-01-20T03:57:48.599Z,2.54
2023-01-20T04:00:18.446Z,2.59
2023-01-20T04:02:47.903Z,2.45
2023-01-20T04:05:22.509Z,2.65
2023-01-20T04:07:51.834Z,2.82
2023-01-20T04:10:21.336Z,2.89
2023-01-20T04:12:50.765Z,2.96
2023-01-20T04:15:20.143Z,3.01
2023-01-20T04:17:49.495Z,3.07
2023-01-20T04:20:21.636Z,3.09
2023-01-20T04:22:51.722Z,3.10
2023-01-20T04:25:23.675Z,3.08
2023-01-20T04:27:53.118Z,3.06
2023-01-20T04:30:22.553Z,3.06
2023-01-20T04:32:51.913Z,3.10
2023-01-20T04:35:24.007Z,3.13
2023-01-20T04:37:53.342Z,3.16
2023-01-20T04:40:22.793Z,3.16
2023-01-20T04:42:52.199Z,3.11
2023-01-20T04:45:21.780Z,3.00
2023-01-20T04:47:51.201Z,2.89
2023-01-20T04:50:20.637Z,2.98
2023-01-20T04:52:52.614Z,2.97
2023-01-20T04:55:21.960Z,3.02
2023-01-20T04:57:51.405Z,2.93
2023-01-20T05:00:21.336Z,2.87
2023-01-20T05:02:50.780Z,2.70
2023-01-20T05:05:20.268Z,2.44
2023-01-20T05:07:52.337Z,2.36
2023-01-20T05:10:21.961Z,2.28
2023-01-20T05:12:51.380Z,2.51
2023-01-20T05:15:20.789Z,2.54
2023-01-20T05:17:50.113Z,2.52
2023-01-20T05:20:20.844Z,2.43
2023-01-20T05:22:52.835Z,2.46
2023-01-20T05:25:22.205Z,2.55
2023-01-20T05:27:51.512Z,2.65
2023-01-20T05:30:20.997Z,2.70
2023-01-20T05:32:52.055Z,2.74
2023-01-20T05:35:21.405Z,2.75
2023-01-20T05:37:54.888Z,2.78
2023-01-20T05:40:24.208Z,2.81
2023-01-20T05:42:53.487Z,2.75
2023-01-20T05:45:22.912Z,2.76
2023-01-20T05:47:56.890Z,2.75
2023-01-20T05:50:26.248Z,2.69
2023-01-20T05:52:58.180Z,2.72
2023-01-20T05:55:27.661Z,2.76
2023-01-20T05:57:56.986Z,2.74
2023-01-20T06:00:26.554Z,2.79
2023-01-20T06:02:55.869Z,2.89
2023-01-20T06:05:25.202Z,2.93
2023-01-20T06:07:54.542Z,2.90
2023-01-20T06:10:28.166Z,2.88
2023-01-20T06:12:57.617Z,2.84
2023-01-20T06:15:27.022Z,2.81
2023-01-20T06:17:57.691Z,2.86
2023-01-20T06:20:26.998Z,2.96
2023-01-20T06:22:57.472Z,3.00
2023-01-20T06:25:29.402Z,2.95
2023-01-20T06:27:58.656Z,2.98
2023-01-20T06:30:27.952Z,3.06
2023-01-20T06:32:58.010Z,3.05
2023-01-20T06:35:27.422Z,3.09
2023-01-20T06:37:56.797Z,3.05
2023-01-20T06:40:26.215Z,3.02
2023-01-20T06:42:58.130Z,3.18
2023-01-20T06:45:28.799Z,3.13
2023-01-20T06:47:58.139Z,3.07
2023-01-20T06:50:27.456Z,3.03
2023-01-20T06:52:56.940Z,3.06
2023-01-20T06:55:26.272Z,3.00
2023-01-20T06:57:58.262Z,2.89
2023-01-20T07:00:27.593Z,2.87
2023-01-20T07:02:56.914Z,2.91
2023-01-20T07:05:26.232Z,2.96
2023-01-20T07:07:55.546Z,2.97
2023-01-20T07:10:24.852Z,3.02
2023-01-20T07:12:54.141Z,3.02
2023-01-20T07:15:26.014Z,2.98
2023-01-20T07:17:55.315Z,2.98
2023-01-20T07:20:24.634Z,2.98
2023-01-20T07:22:53.910Z,2.94
2023-01-20T07:25:23.174Z,2.93
2023-01-20T07:27:53.235Z,2.73
2023-01-20T07:30:22.646Z,2.58
2023-01-20T07:32:54.599Z,2.51
2023-01-20T07:35:23.948Z,2.50
2023-01-20T07:37:53.413Z,2.48
2023-01-20T07:40:22.678Z,2.44
2023-01-20T07:42:52.261Z,2.41
2023-01-20T07:45:21.545Z,2.43
2023-01-20T07:47:50.904Z,2.44
2023-01-20T07:50:22.940Z,2.46
2023-01-20T07:52:52.198Z,2.57
2023-01-20T07:55:23.575Z,2.64
2023-01-20T07:57:54.318Z,2.72
2023-01-20T08:00:23.988Z,2.86
2023-01-20T08:02:53.821Z,3.09
2023-01-20T08:05:25.781Z,3.34
2023-01-20T08:07:55.157Z,3.56
2023-01-20T08:10:24.540Z,3.63
2023-01-20T08:12:53.932Z,3.67
2023-01-20T08:15:23.466Z,3.78
2023-01-20T08:17:55.867Z,3.99
2023-01-20T08:20:28.096Z,4.16
2023-01-20T08:22:57.497Z,4.34
2023-01-20T08:25:26.908Z,4.57
2023-01-20T08:27:56.250Z,4.47
2023-01-20T08:30:25.908Z,4.46
2023-01-20T08:32:55.223Z,4.46
2023-01-20T08:35:27.161Z,4.49
2023-01-20T08:37:56.514Z,4.52
2023-01-20T08:40:25.954Z,4.60
2023-01-20T08:42:55.394Z,4.65
2023-01-20T08:45:24.878Z,4.66
2023-01-20T08:47:54.440Z,4.70
2023-01-20T08:50:25.435Z,4.80
2023-01-20T08:52:57.660Z,4.94
2023-01-20T08:55:27.253Z,5.06
2023-01-20T08:57:56.783Z,5.17
2023-01-20T09:00:26.723Z,5.35
2023-01-20T09:02:56.183Z,5.49
2023-01-20T09:05:25.651Z,5.68
2023-01-20T09:07:57.950Z,5.87
2023-01-20T09:10:27.592Z,6.09
2023-01-20T09:12:57.322Z,6.06
2023-01-20T09:15:27.520Z,5.98
2023-01-20T09:17:59.119Z,5.60
2023-01-20T09:20:30.341Z,4.91
2023-01-20T09:23:03.129Z,5.46
2023-01-20T09:25:32.898Z,5.78
2023-01-20T09:28:04.987Z,5.82
2023-01-20T09:30:36.000Z,5.16
2023-01-20T09:33:06.235Z,4.64
2023-01-20T09:35:36.259Z,4.75
2023-01-20T09:38:24.736Z,4.93
2023-01-20T09:41:09.340Z,4.68
2023-01-20T09:43:53.126Z,4.36
2023-01-20T09:46:24.374Z,4.40
2023-01-20T09:49:08.107Z,3.76
2023-01-20T09:51:51.331Z,4.17
2023-01-20T09:54:25.950Z,4.14
2023-01-20T09:56:55.750Z,4.61
2023-01-20T09:59:26.254Z,5.79
2023-01-20T10:01:56.450Z,5.49
2023-01-20T10:04:30.053Z,6.11
2023-01-20T10:07:00.546Z,5.86
2023-01-20T10:09:35.141Z,5.78
2023-01-20T10:12:06.665Z,6.34
2023-01-20T10:14:37.907Z,5.95
2023-01-20T10:17:08.438Z,5.70
2023-01-20T10:19:38.685Z,5.32
2023-01-20T10:22:12.814Z,5.79
2023-01-20T10:24:47.609Z,6.50
2023-01-20T10:27:17.041Z,5.16
2023-01-20T10:29:47.091Z,5.16
2023-01-20T10:32:17.245Z,5.39
2023-01-20T10:34:47.323Z,5.80
2023-01-20T10:37:17.658Z,5.34
2023-01-20T10:39:51.235Z,5.61
2023-01-20T10:42:20.810Z,5.25
2023-01-20T10:44:51.463Z,6.26
2023-01-20T10:47:23.798Z,6.07
2023-01-20T10:50:00.300Z,6.74
2023-01-20T10:52:36.318Z,7.21
2023-01-20T10:55:12.839Z,7.39
2023-01-20T10:57:43.057Z,8.00
2023-01-20T11:00:19.602Z,8.55
2023-01-20T11:02:50.488Z,8.76
2023-01-20T11:05:32.829Z,7.66
2023-01-20T11:08:02.721Z,7.49
2023-01-20T11:10:37.529Z,7.39
2023-01-20T11:13:07.633Z,6.95
2023-01-20T11:15:38.969Z,7.47
2023-01-20T11:18:23.989Z,8.01
2023-01-20T11:20:55.070Z,7.78
2023-01-20T11:23:26.909Z,6.34
2023-01-20T11:25:59.441Z,6.42
2023-01-20T11:28:29.397Z,7.28
2023-01-20T11:30:59.345Z,8.03
2023-01-20T11:33:29.950Z,8.38
2023-01-20T11:36:00.485Z,8.02
2023-01-20T11:38:31.819Z,7.98
2023-01-20T11:41:04.613Z,7.23
2023-01-20T11:43:34.780Z,7.35
2023-01-20T11:46:16.567Z,7.46
2023-01-20T11:48:46.159Z,7.08
2023-01-20T11:51:22.217Z,7.30
2023-01-20T11:53:52.059Z,8.00
2023-01-20T11:56:27.492Z,8.61
2023-01-20T11:58:59.345Z,7.89
2023-01-20T12:01:29.919Z,7.21
2023-01-20T12:04:19.833Z,6.48
2023-01-20T12:06:56.942Z,6.71
2023-01-20T12:09:34.927Z,6.92
2023-01-20T12:12:13.363Z,6.49
2023-01-20T12:14:43.513Z,6.69
2023-01-20T12:17:17.351Z,6.43
2023-01-20T12:19:51.066Z,7.00
2023-01-20T12:22:21.219Z,7.01
2023-01-20T12:25:07.773Z,6.66
2023-01-20T12:27:39.977Z,6.40
2023-01-20T12:30:10.538Z,6.54
2023-01-20T12:32:40.405Z,6.61
2023-01-20T12:35:13.791Z,6.37
2023-01-20T12:37:45.186Z,6.01
2023-01-20T12:40:18.193Z,5.49
2023-01-20T12:43:04.568Z,5.39
2023-01-20T12:45:48.228Z,5.29
2023-01-20T12:48:21.983Z,5.10
2023-01-20T12:50:55.083Z,5.60
2023-01-20T12:53:28.471Z,5.93
2023-01-20T12:56:00.351Z,6.53
2023-01-20T12:58:34.075Z,6.52
2023-01-20T13:01:16.138Z,6.24
2023-01-20T13:04:12.901Z,5.95
2023-01-20T13:06:48.756Z,5.31
2023-01-20T13:09:36.240Z,5.36
2023-01-20T13:12:08.184Z,5.67
2023-01-20T13:14:40.805Z,5.80
2023-01-20T13:17:15.257Z,5.93
2023-01-20T13:19:45.824Z,5.87
2023-01-20T13:22:15.807Z,6.26
2023-01-20T13:24:46.652Z,6.37
2023-01-20T13:27:27.379Z,6.46
2023-01-20T13:29:57.848Z,6.34
2023-01-20T13:32:37.370Z,6.35
2023-01-20T13:35:29.993Z,6.36
2023-01-20T13:37:59.887Z,6.30
2023-01-20T13:40:45.943Z,5.69
2023-01-20T13:43:30.279Z,5.82
2023-01-20T13:46:15.374Z,6.21
2023-01-20T13:49:09.190Z,6.25
2023-01-20T13:51:48.355Z,5.89
2023-01-20T13:54:34.363Z,5.91
2023-01-20T13:57:20.303Z,5.42
2023-01-20T13:59:49.798Z,5.41
2023-01-20T14:02:20.123Z,5.46
2023-01-20T14:04:52.711Z,5.53
2023-01-20T14:07:25.411Z,5.46
2023-01-20T14:09:55.003Z,5.31
2023-01-20T14:12:24.640Z,4.95
2023-01-20T14:14:54.109Z,4.87
2023-01-20T14:17:24.687Z,5.14
2023-01-20T14:19:57.424Z,5.46
2023-01-20T14:22:27.537Z,5.75
2023-01-20T14:24:57.536Z,5.78
2023-01-20T14:27:28.316Z,5.68
2023-01-20T14:29:59.832Z,5.17
2023-01-20T14:32:30.089Z,5.20
2023-01-20T14:35:02.116Z,5.54
2023-01-20T14:37:31.903Z,5.19
2023-01-20T14:40:02.501Z,4.97
2023-01-20T14:42:31.953Z,4.82
2023-01-20T14:45:01.245Z,4.87
2023-01-20T14:47:31.084Z,4.66
2023-01-20T14:50:03.235Z,4.62
2023-01-20T14:52:32.983Z,4.66
2023-01-20T14:55:02.709Z,4.73
2023-01-20T14:57:32.116Z,4.75
2023-01-20T15:00:14.363Z,4.52
2023-01-20T15:02:44.621Z,4.30
2023-01-20T15:05:28.093Z,4.27
2023-01-20T15:08:18.705Z,4.57
2023-01-20T15:10:48.111Z,4.74
2023-01-20T15:13:24.474Z,5.03
2023-01-20T15:15:53.885Z,4.86
2023-01-20T15:18:23.875Z,4.88
2023-01-20T15:21:15.597Z,4.77
2023-01-20T15:23:51.364Z,4.68
2023-01-20T15:26:24.505Z,4.43
2023-01-20T15:28:53.831Z,4.06
2023-01-20T15:31:23.236Z,3.77
2023-01-20T15:33:52.788Z,3.48
2023-01-20T15:36:26.242Z,3.45
2023-01-20T15:38:55.607Z,3.54
2023-01-20T15:41:25.010Z,3.50
2023-01-20T15:43:54.354Z,3.42
2023-01-20T15:46:23.711Z,3.54
2023-01-20T15:48:52.992Z,3.85
2023-01-20T15:51:22.486Z,4.15
2023-01-20T15:53:54.469Z,4.42
2023-01-20T15:56:24.313Z,4.43
2023-01-20T15:58:53.832Z,4.30
2023-01-20T16:01:24.172Z,4.02
2023-01-20T16:03:55.041Z,3.81
2023-01-20T16:06:25.187Z,3.45
2023-01-20T16:08:57.163Z,3.19
2023-01-20T16:11:26.611Z,3.16
2023-01-20T16:13:56.103Z,3.08
2023-01-20T16:16:29.628Z,2.97
2023-01-20T16:18:59.422Z,2.69
2023-01-20T16:21:28.990Z,2.95
2023-01-20T16:24:00.908Z,2.93
2023-01-20T16:26:30.597Z,2.81
2023-01-20T16:29:00.074Z,2.18
2023-01-20T16:31:29.687Z,1.73
2023-01-20T16:33:58.980Z,1.86
2023-01-20T16:36:28.668Z,1.88
2023-01-20T16:38:57.942Z,1.73
2023-01-20T16:41:30.844Z,1.91
2023-01-20T16:44:00.656Z,2.05
2023-01-20T16:46:31.596Z,1.72
2023-01-20T16:49:02.161Z,1.67
2023-01-20T16:51:31.658Z,2.18
2023-01-20T16:54:01.047Z,2.48
2023-01-20T16:56:33.176Z,2.69
2023-01-20T16:59:03.033Z,2.72
2023-01-20T17:01:33.234Z,2.78
2023-01-20T17:04:02.815Z,2.86
2023-01-20T17:06:33.372Z,2.92
2023-01-20T17:09:02.981Z,2.85
2023-01-20T17:11:35.277Z,2.71
2023-01-20T17:14:04.960Z,2.64
2023-01-20T17:16:34.370Z,2.77
2023-01-20T17:19:03.762Z,2.83
2023-01-20T17:21:33.610Z,2.79
2023-01-20T17:24:03.291Z,2.54
2023-01-20T17:26:37.108Z,2.57
2023-01-20T17:29:07.137Z,2.67
2023-01-20T17:31:37.123Z,2.70
2023-01-20T17:34:06.621Z,2.65
2023-01-20T17:36:36.273Z,2.65
2023-01-20T17:39:05.609Z,2.50
2023-01-20T17:41:37.467Z,2.50
2023-01-20T17:44:08.073Z,2.43
2023-01-20T17:46:37.520Z,2.35
2023-01-20T17:49:08.162Z,2.40
2023-01-20T17:51:37.413Z,2.39
2023-01-20T17:54:06.675Z,2.33
2023-01-20T17:56:38.575Z,2.16
2023-01-20T17:59:07.979Z,2.07
2023-01-20T18:01:37.313Z,2.22
2023-01-20T18:04:10.367Z,2.28
2023-01-20T18:06:40.004Z,2.13
2023-01-20T18:09:09.693Z,1.91
2023-01-20T18:11:43.645Z,1.99
2023-01-20T18:14:13.181Z,2.00
2023-01-20T18:16:43.156Z,2.17
2023-01-20T18:19:12.517Z,2.16
2023-01-20T18:21:41.888Z,2.24
2023-01-20T18:24:12.704Z,2.15
2023-01-20T18:26:45.319Z,2.16
2023-01-20T18:29:15.717Z,2.13
2023-01-20T18:31:46.690Z,1.89
2023-01-20T18:34:16.526Z,2.02
2023-01-20T18:36:47.676Z,2.11
2023-01-20T18:39:17.797Z,2.10
2023-01-20T18:41:50.055Z,2.11
2023-01-20T18:44:19.785Z,2.20
2023-01-20T18:46:49.145Z,2.07
2023-01-20T18:49:18.961Z,2.01
2023-01-20T18:51:48.523Z,1.94
2023-01-20T18:54:21.019Z,2.04
2023-01-20T18:56:53.194Z,2.12
2023-01-20T18:59:22.693Z,2.24
2023-01-20T19:01:52.442Z,2.21
2023-01-20T19:04:22.052Z,2.15
2023-01-20T19:06:51.752Z,1.76
2023-01-20T19:09:21.316Z,1.94
2023-01-20T19:11:53.467Z,2.03
2023-01-20T19:14:22.982Z,2.07
2023-01-20T19:16:52.316Z,2.22
2023-01-20T19:19:21.942Z,2.22
2023-01-20T19:21:52.676Z,2.09
2023-01-20T19:24:22.489Z,2.08
2023-01-20T19:26:54.434Z,2.13
2023-01-20T19:29:23.672Z,2.25
2023-01-20T19:31:52.966Z,2.27
2023-01-20T19:34:22.509Z,2.20
2023-01-20T19:36:51.985Z,2.17
2023-01-20T19:39:21.622Z,1.92
2023-01-20T19:41:51.308Z,1.76
2023-01-20T19:44:23.318Z,1.60
2023-01-20T19:46:52.726Z,1.71
2023-01-20T19:49:22.267Z,1.79
2023-01-20T19:51:51.668Z,1.52
2023-01-20T19:54:21.521Z,1.36
2023-01-20T19:56:51.083Z,1.55
2023-01-20T19:59:23.151Z,1.74
2023-01-20T20:01:52.747Z,1.83
2023-01-20T20:04:24.156Z,1.95
2023-01-20T20:06:53.797Z,1.81
2023-01-20T20:09:26.130Z,1.66
2023-01-20T20:11:56.130Z,1.83
2023-01-20T20:14:29.683Z,1.88
2023-01-20T20:16:59.041Z,1.78
2023-01-20T20:19:28.875Z,1.84
2023-01-20T20:21:58.878Z,1.59
2023-01-20T20:24:30.657Z,1.67
2023-01-20T20:27:03.307Z,1.64
2023-01-20T20:29:36.261Z,1.61
2023-01-20T20:32:05.565Z,1.56
2023-01-20T20:34:35.193Z,1.70
2023-01-20T20:37:04.669Z,1.63
2023-01-20T20:39:35.044Z,1.70
2023-01-20T20:42:05.178Z,1.76
2023-01-20T20:44:37.349Z,1.74
2023-01-20T20:47:07.140Z,1.69
2023-01-20T20:49:36.667Z,1.62
2023-01-20T20:52:09.107Z,1.60
2023-01-20T20:54:39.412Z,1.77
2023-01-20T20:57:11.899Z,1.64
2023-01-20T21:10:21.746Z,1.70
2023-01-20T21:37:38.474Z,1.44
2023-01-20T21:40:09.039Z,1.41
2023-01-20T21:42:38.690Z,1.46
2023-01-20T21:45:06.019Z,1.51
2023-01-20T21:47:35.546Z,1.66
2023-01-20T21:50:17.637Z,1.55
2023-01-20T21:52:49.949Z,1.49
2023-01-20T21:55:19.747Z,1.50
2023-01-20T21:57:51.205Z,1.55
2023-01-20T22:00:21.557Z,1.86
2023-01-20T22:02:51.153Z,1.72
2023-01-20T22:05:20.897Z,1.79
2023-01-20T22:08:02.615Z,1.54
2023-01-20T22:10:32.699Z,1.78
2023-01-20T22:13:02.057Z,1.65
2023-01-20T22:15:31.644Z,1.58
2023-01-20T22:18:01.068Z,1.46
2023-01-20T22:20:31.059Z,1.48
2023-01-20T22:23:03.155Z,1.40
2023-01-20T22:25:32.703Z,1.30
2023-01-20T22:28:02.121Z,1.24
2023-01-20T22:30:31.732Z,1.34
2023-01-20T22:33:01.428Z,1.47
2023-01-20T22:35:31.151Z,1.42
2023-01-20T22:38:04.260Z,1.40
2023-01-20T22:40:34.378Z,1.37
2023-01-20T22:43:03.843Z,1.34
2023-01-20T22:45:33.337Z,1.35
2023-01-20T22:48:02.855Z,1.27
2023-01-20T22:50:32.266Z,1.47
2023-01-20T22:53:04.417Z,1.29
2023-01-20T22:55:33.954Z,1.24
2023-01-20T22:58:03.411Z,1.23
2023-01-20T23:00:32.795Z,1.20
2023-01-20T23:03:02.499Z,1.23
2023-01-20T23:05:32.561Z,1.27
2023-01-20T23:08:04.685Z,1.40
2023-01-20T23:10:49.143Z,1.52
2023-01-20T23:13:18.798Z,1.38
2023-01-20T23:15:48.437Z,1.58
2023-01-20T23:18:18.179Z,1.44
2023-01-20T23:20:52.654Z,1.25
2023-01-20T23:23:25.278Z,1.55
2023-01-20T23:26:03.861Z,1.39
2023-01-20T23:28:33.785Z,1.38
2023-01-20T23:31:08.176Z,1.46
2023-01-20T23:33:41.882Z,1.28
2023-01-20T23:36:14.140Z,1.29
2023-01-20T23:38:49.077Z,1.43
2023-01-20T23:41:21.305Z,1.43
2023-01-20T23:43:56.923Z,1.27
2023-01-20T23:46:29.449Z,1.23
2023-01-20T23:49:03.596Z,1.29
2023-01-20T23:51:36.028Z,1.17
2023-01-20T23:54:34.688Z,1.25
2023-01-20T23:57:23.273Z,1.33
